Time;durP1;ratioP1;P1;durP2;ratioP2;P2;SDS_P1;SDS_P2;PMS_P1;PMS_P2;Temp;Humidity;BMP_temperature;BMP_pressure;BME280_temperature;BME280_humidity;BME280_pressure;Samples;Min_cycle;Max_cycle;Signal;HPM_P1;HPM_P2
2023/03/21 00:00:46;;;;;;;0.20;0.10;;;;;;;;;;4978043;28;20084;-74
2023/03/21 00:03:13;;;;;;;0.20;0.10;;;;;;;;;;4972698;28;20034;-74
2023/03/21 00:05:44;;;;;;;1.08;1.08;;;;;;;;;;4992779;28;20662;-74
2023/03/21 00:08:10;;;;;;;0.40;0.40;;;;;;;;;;4987307;28;20045;-74
2023/03/21 00:10:37;;;;;;;2.47;0.25;;;;;;;;;;4981827;28;20713;-74
2023/03/21 00:13:04;;;;;;;0.20;0.17;;;;;;;;;;4983719;28;20068;-73
2023/03/21 00:15:30;;;;;;;5.10;1.23;;;;;;;;;;4996251;28;20105;-74
2023/03/21 00:18:03;;;;;;;0.30;0.20;;;;;;;;;;4985330;28;20042;-73
2023/03/21 00:20:29;;;;;;;;;;;;;;;;;;4963027;28;20065;-74
2023/03/21 00:22:55;;;;;;;0.30;0.30;;;;;;;;;;4967183;28;20019;-74
2023/03/21 00:25:21;;;;;;;0.32;0.32;;;;;;;;;;4988800;28;20040;-74
2023/03/21 00:27:47;;;;;;;0.20;0.10;;;;;;;;;;4988079;28;20041;-74
2023/03/21 00:30:13;;;;;;;0.40;0.40;;;;;;;;;;4986335;28;20042;-74
2023/03/21 00:32:40;;;;;;;0.25;0.25;;;;;;;;;;4987908;28;20034;-74
2023/03/21 00:35:06;;;;;;;0.47;0.30;;;;;;;;;;4967706;28;20076;-74
2023/03/21 00:37:32;;;;;;;0.38;0.17;;;;;;;;;;4989063;28;20038;-75
2023/03/21 00:39:58;;;;;;;0.75;0.40;;;;;;;;;;4971766;28;20053;-73
2023/03/21 00:42:25;;;;;;;0.20;0.10;;;;;;;;;;4989809;28;20065;-74
2023/03/21 00:44:51;;;;;;;0.30;0.20;;;;;;;;;;4990404;28;20042;-74
2023/03/21 00:47:17;;;;;;;0.73;0.40;;;;;;;;;;4990229;28;20053;-74
2023/03/21 00:49:43;;;;;;;0.38;0.38;;;;;;;;;;4985736;28;20073;-74
2023/03/21 00:52:10;;;;;;;0.68;0.20;;;;;;;;;;4984926;28;20048;-74
2023/03/21 00:54:36;;;;;;;0.22;0.22;;;;;;;;;;4993059;28;20045;-74
2023/03/21 00:57:04;;;;;;;1.10;0.52;;;;;;;;;;4993202;28;20720;-74
2023/03/21 00:59:30;;;;;;;2.50;0.75;;;;;;;;;;4995318;28;20688;-74
2023/03/21 01:01:59;;;;;;;0.30;0.30;;;;;;;;;;4993965;28;20091;-74
2023/03/21 01:04:25;;;;;;;0.30;0.30;;;;;;;;;;4981163;28;20133;-73
2023/03/21 01:06:52;;;;;;;1.00;0.52;;;;;;;;;;4997370;28;20521;-74
2023/03/21 01:09:19;;;;;;;0.22;0.20;;;;;;;;;;4996109;28;20096;-75
2023/03/21 01:11:45;;;;;;;0.32;0.32;;;;;;;;;;4980187;28;20076;-74
2023/03/21 01:14:12;;;;;;;0.20;0.10;;;;;;;;;;4997973;28;20159;-75
2023/03/21 01:16:38;;;;;;;0.50;0.50;;;;;;;;;;4984664;28;20632;-74
2023/03/21 01:19:06;;;;;;;0.20;0.20;;;;;;;;;;4991752;28;20042;-73
2023/03/21 01:21:32;;;;;;;0.20;0.20;;;;;;;;;;4974413;28;20140;-75
2023/03/21 01:23:58;;;;;;;0.50;0.35;;;;;;;;;;4974392;28;20525;-75
2023/03/21 01:26:25;;;;;;;0.35;0.10;;;;;;;;;;4985377;28;20125;-74
2023/03/21 01:28:51;;;;;;;0.25;0.20;;;;;;;;;;4990206;28;20102;-74
2023/03/21 01:31:17;;;;;;;0.22;0.17;;;;;;;;;;4980697;28;20567;-75
2023/03/21 01:33:44;;;;;;;0.20;0.20;;;;;;;;;;4989264;28;20635;-74
2023/03/21 01:36:20;;;;;;;0.43;0.43;;;;;;;;;;4969575;28;20128;-75
2023/03/21 01:38:47;;;;;;;0.20;0.17;;;;;;;;;;4986898;28;20589;-75
2023/03/21 01:41:20;;;;;;;0.73;0.43;;;;;;;;;;4971612;28;20046;-75
2023/03/21 01:43:46;;;;;;;1.15;0.43;;;;;;;;;;4988878;28;20442;-75
2023/03/21 01:46:27;;;;;;;0.85;0.43;;;;;;;;;;4989748;28;20042;-75
2023/03/21 01:49:14;;;;;;;0.20;0.10;;;;;;;;;;4992033;28;20045;-74
2023/03/21 01:51:45;;;;;;;0.32;0.22;;;;;;;;;;4991710;28;20564;-75
2023/03/21 01:54:14;;;;;;;0.20;0.20;;;;;;;;;;4993202;28;20074;-74
2023/03/21 01:56:45;;;;;;;0.60;0.60;;;;;;;;;;4973414;28;20104;-75
2023/03/21 01:59:13;;;;;;;0.20;0.10;;;;;;;;;;4987061;28;20421;-74
2023/03/21 02:01:41;;;;;;;0.20;0.10;;;;;;;;;;4986252;28;20113;-74
2023/03/21 02:04:07;;;;;;;0.43;0.17;;;;;;;;;;4978071;28;20038;-74
2023/03/21 02:06:40;;;;;;;0.20;0.10;;;;;;;;;;4992876;28;20077;-75
2023/03/21 02:09:08;;;;;;;0.30;0.30;;;;;;;;;;4990635;28;20697;-75
2023/03/21 02:11:35;;;;;;;0.20;0.10;;;;;;;;;;4973299;28;20054;-74
2023/03/21 02:14:01;;;;;;;0.20;0.10;;;;;;;;;;4988614;28;20052;-75
2023/03/21 02:16:40;;;;;;;0.20;0.10;;;;;;;;;;4977833;28;20045;-73
2023/03/21 02:19:25;;;;;;;0.20;0.10;;;;;;;;;;4987225;28;20057;-74
2023/03/21 02:22:02;;;;;;;0.20;0.10;;;;;;;;;;4973559;28;20681;-74
2023/03/21 02:24:28;;;;;;;5.05;0.65;;;;;;;;;;4992503;28;20122;-75
2023/03/21 02:27:00;;;;;;;0.30;0.28;;;;;;;;;;4993953;28;20042;-74
2023/03/21 02:29:38;;;;;;;0.20;0.20;;;;;;;;;;4978334;28;20073;-74
2023/03/21 02:32:16;;;;;;;0.45;0.45;;;;;;;;;;4971130;28;20050;-75
2023/03/21 02:34:51;;;;;;;0.45;0.40;;;;;;;;;;4973278;28;20135;-74
2023/03/21 02:37:16;;;;;;;0.20;0.10;;;;;;;;;;4975011;28;20034;-74
2023/03/21 02:39:52;;;;;;;0.20;0.10;;;;;;;;;;4972670;28;20425;-76
2023/03/21 02:42:21;;;;;;;0.40;0.17;;;;;;;;;;4988254;28;20522;-74
2023/03/21 02:45:02;;;;;;;0.30;0.22;;;;;;;;;;4972536;28;20132;-74
2023/03/21 02:47:48;;;;;;;1.05;0.52;;;;;;;;;;4984237;28;20060;-74
2023/03/21 02:50:20;;;;;;;0.30;0.30;;;;;;;;;;4994809;28;20030;-74
2023/03/21 02:52:47;;;;;;;0.35;0.30;;;;;;;;;;4998879;28;20104;-74
2023/03/21 02:55:15;;;;;;;0.20;0.10;;;;;;;;;;4975547;28;20053;-75
2023/03/21 02:57:42;;;;;;;0.63;0.57;;;;;;;;;;4998315;28;20061;-74
2023/03/21 03:00:11;;;;;;;0.30;0.30;;;;;;;;;;4998684;28;20499;-74
2023/03/21 03:02:39;;;;;;;0.60;0.30;;;;;;;;;;4972840;28;20038;-75
2023/03/21 03:05:12;;;;;;;0.30;0.20;;;;;;;;;;4989410;28;20132;-73
2023/03/21 03:07:57;;;;;;;0.40;0.40;;;;;;;;;;4993291;28;20196;-74
2023/03/21 03:10:26;;;;;;;1.35;0.38;;;;;;;;;;5005126;28;20048;-74
2023/03/21 03:13:11;;;;;;;0.20;0.20;;;;;;;;;;4975176;28;20042;-75
2023/03/21 03:15:44;;;;;;;0.30;0.25;;;;;;;;;;4988847;28;20084;-74
2023/03/21 03:18:13;;;;;;;0.20;0.20;;;;;;;;;;4986321;28;20038;-75
2023/03/21 03:20:45;;;;;;;0.20;0.10;;;;;;;;;;4986387;28;20045;-74
2023/03/21 03:23:14;;;;;;;0.68;0.68;;;;;;;;;;4972712;28;20068;-74
2023/03/21 03:25:50;;;;;;;0.47;0.20;;;;;;;;;;4981241;28;20084;-74
2023/03/21 03:28:20;;;;;;;0.20;0.10;;;;;;;;;;4985412;28;20038;-75
2023/03/21 03:30:47;;;;;;;1.58;0.38;;;;;;;;;;4988011;28;20042;-74
2023/03/21 03:33:15;;;;;;;0.52;0.32;;;;;;;;;;4970228;28;20442;-73
2023/03/21 03:35:42;;;;;;;0.20;0.10;;;;;;;;;;4970919;28;20049;-74
2023/03/21 03:38:09;;;;;;;0.20;0.10;;;;;;;;;;4973647;28;20030;-74
2023/03/21 03:40:45;;;;;;;0.20;0.20;;;;;;;;;;4989535;28;20046;-75
2023/03/21 03:43:15;;;;;;;0.93;0.57;;;;;;;;;;4985593;28;20042;-74
2023/03/21 03:45:43;;;;;;;0.20;0.10;;;;;;;;;;4983021;28;20037;-74
2023/03/21 03:48:16;;;;;;;0.32;0.20;;;;;;;;;;4983654;28;20052;-74
2023/03/21 03:50:42;;;;;;;;;;;;;;;;;;4972852;28;20498;-74
2023/03/21 03:53:15;;;;;;;0.63;0.20;;;;;;;;;;4985896;28;19924;-74
2023/03/21 03:55:42;;;;;;;0.20;0.20;;;;;;;;;;4987628;28;20049;-75
2023/03/21 03:58:08;;;;;;;0.32;0.20;;;;;;;;;;4982132;28;20104;-74
2023/03/21 04:00:35;;;;;;;0.20;0.10;;;;;;;;;;4971949;28;20038;-76
2023/03/21 04:03:01;;;;;;;0.20;0.10;;;;;;;;;;4971925;28;20048;-74
2023/03/21 04:05:27;;;;;;;0.20;0.10;;;;;;;;;;4990034;28;20034;-73
2023/03/21 04:07:53;;;;;;;0.52;0.20;;;;;;;;;;4970713;28;20120;-74
2023/03/21 04:10:20;;;;;;;0.28;0.10;;;;;;;;;;4977110;28;20046;-74
2023/03/21 04:12:46;;;;;;;0.20;0.10;;;;;;;;;;4988838;28;20053;-73
2023/03/21 04:15:12;;;;;;;0.30;0.20;;;;;;;;;;4997786;28;20127;-74
2023/03/21 04:17:38;;;;;;;0.45;0.32;;;;;;;;;;4999162;28;20750;-74
2023/03/21 04:20:06;;;;;;;0.20;0.13;;;;;;;;;;4990068;28;20042;-75
2023/03/21 04:22:33;;;;;;;0.20;0.10;;;;;;;;;;4992219;28;20626;-75
2023/03/21 04:25:00;;;;;;;0.20;0.10;;;;;;;;;;4978368;28;20096;-74
2023/03/21 04:27:26;;;;;;;1.08;0.45;;;;;;;;;;4976728;28;20534;-74
2023/03/21 04:29:52;;;;;;;0.20;0.10;;;;;;;;;;4996461;28;20050;-75
2023/03/21 04:32:23;;;;;;;0.20;0.10;;;;;;;;;;4993259;28;20097;-74
2023/03/21 04:34:52;;;;;;;0.20;0.10;;;;;;;;;;4983746;28;20180;-75
2023/03/21 04:37:19;;;;;;;0.20;0.10;;;;;;;;;;4991293;28;20042;-75
2023/03/21 04:39:46;;;;;;;0.20;0.10;;;;;;;;;;4969760;28;20064;-74
2023/03/21 04:42:17;;;;;;;0.20;0.10;;;;;;;;;;4991820;28;20046;-75
2023/03/21 04:44:43;;;;;;;0.30;0.20;;;;;;;;;;4972845;28;20033;-74
2023/03/21 04:47:09;;;;;;;0.20;0.10;;;;;;;;;;4998071;23;20060;-76
2023/03/21 04:49:36;;;;;;;0.20;0.10;;;;;;;;;;4955907;28;20042;-77
2023/03/21 04:52:02;;;;;;;0.20;0.10;;;;;;;;;;4957771;28;20138;-78
2023/03/21 04:54:28;;;;;;;0.20;0.20;;;;;;;;;;4951823;28;20140;-78
2023/03/21 04:56:54;;;;;;;0.30;0.30;;;;;;;;;;4972480;28;20039;-76
2023/03/21 04:59:20;;;;;;;0.30;0.20;;;;;;;;;;4966946;28;20053;-75
2023/03/21 05:01:46;;;;;;;0.20;0.20;;;;;;;;;;4955640;28;20516;-75
2023/03/21 05:04:13;;;;;;;0.20;0.20;;;;;;;;;;4971824;28;20042;-78
2023/03/21 05:06:41;;;;;;;0.38;0.30;;;;;;;;;;4970754;28;20048;-77
2023/03/21 05:09:07;;;;;;;0.50;0.45;;;;;;;;;;4964760;28;20056;-77
2023/03/21 05:11:36;;;;;;;0.20;0.20;;;;;;;;;;4962978;28;20038;-77
2023/03/21 05:14:06;;;;;;;0.20;0.20;;;;;;;;;;4940794;28;20053;-76
2023/03/21 05:16:33;;;;;;;0.20;0.10;;;;;;;;;;4970063;28;20039;-77
2023/03/21 05:19:03;;;;;;;0.20;0.10;;;;;;;;;;4974599;28;20038;-78
2023/03/21 05:21:33;;;;;;;0.22;0.22;;;;;;;;;;4958258;28;20046;-78
2023/03/21 05:24:02;;;;;;;0.50;0.35;;;;;;;;;;4962686;28;20038;-79
2023/03/21 05:26:28;;;;;;;0.35;0.25;;;;;;;;;;4980840;28;20045;-76
2023/03/21 05:28:54;;;;;;;0.20;0.08;;;;;;;;;;4964450;28;20076;-77
2023/03/21 05:31:21;;;;;;;0.40;0.20;;;;;;;;;;4984415;28;20037;-75
2023/03/21 05:33:47;;;;;;;0.20;0.10;;;;;;;;;;4981011;28;20042;-75
2023/03/21 05:36:13;;;;;;;0.20;0.10;;;;;;;;;;4977759;28;20177;-77
2023/03/21 05:38:44;;;;;;;0.20;0.10;;;;;;;;;;4981359;28;20125;-76
2023/03/21 05:41:11;;;;;;;0.20;0.10;;;;;;;;;;4980234;28;20053;-75
2023/03/21 05:43:37;;;;;;;0.20;0.10;;;;;;;;;;4960351;28;20046;-76
2023/03/21 05:46:03;;;;;;;0.38;0.38;;;;;;;;;;4964812;28;20591;-77
2023/03/21 05:48:29;;;;;;;0.20;0.20;;;;;;;;;;4975118;28;20050;-77
2023/03/21 05:50:55;;;;;;;0.20;0.10;;;;;;;;;;4955078;28;20535;-78
2023/03/21 05:53:21;;;;;;;0.20;0.10;;;;;;;;;;4974208;28;20046;-76
2023/03/21 05:55:47;;;;;;;0.50;0.45;;;;;;;;;;4969930;28;20496;-78
2023/03/21 05:58:13;;;;;;;0.20;0.10;;;;;;;;;;4976842;28;20137;-77
2023/03/21 06:00:39;;;;;;;0.20;0.10;;;;;;;;;;4977434;28;20073;-77
2023/03/21 06:03:05;;;;;;;0.52;0.40;;;;;;;;;;4976424;28;20108;-78
2023/03/21 06:05:32;;;;;;;0.68;0.32;;;;;;;;;;4955739;28;20038;-78
2023/03/21 06:07:58;;;;;;;0.20;0.20;;;;;;;;;;4957333;28;20042;-78
2023/03/21 06:10:24;;;;;;;0.30;0.15;;;;;;;;;;4960716;28;20636;-77
2023/03/21 06:12:50;;;;;;;0.85;0.82;;;;;;;;;;4979425;28;20059;-78
2023/03/21 06:15:16;;;;;;;0.25;0.25;;;;;;;;;;4963105;28;20244;-76
2023/03/21 06:17:42;;;;;;;0.20;0.10;;;;;;;;;;4978361;28;20047;-78
2023/03/21 06:20:09;;;;;;;0.43;0.30;;;;;;;;;;4972390;28;20121;-77
2023/03/21 06:22:35;;;;;;;0.20;0.10;;;;;;;;;;4980007;28;20053;-79
2023/03/21 06:25:01;;;;;;;0.20;0.20;;;;;;;;;;4978627;28;20399;-77
2023/03/21 06:27:27;;;;;;;0.50;0.40;;;;;;;;;;4981993;28;20094;-77
2023/03/21 06:29:53;;;;;;;0.20;0.20;;;;;;;;;;4975488;28;20038;-77
2023/03/21 06:32:20;;;;;;;0.45;0.35;;;;;;;;;;4976859;28;20046;-79
2023/03/21 06:34:46;;;;;;;2.58;1.00;;;;;;;;;;4978310;28;20038;-75
2023/03/21 06:37:12;;;;;;;1.70;1.00;;;;;;;;;;4978712;28;20108;-76
2023/03/21 06:39:38;;;;;;;0.20;0.10;;;;;;;;;;4953784;28;21353;-77
2023/03/21 06:42:04;;;;;;;0.25;0.25;;;;;;;;;;4970720;28;20042;-77
2023/03/21 06:44:32;;;;;;;1.17;0.45;;;;;;;;;;4985113;28;20084;-80
2023/03/21 06:46:58;;;;;;;0.50;0.50;;;;;;;;;;4980963;28;20533;-79
2023/03/21 06:49:24;;;;;;;0.73;0.35;;;;;;;;;;4981375;28;20147;-78
2023/03/21 06:51:50;;;;;;;0.40;0.30;;;;;;;;;;4954843;28;20114;-79
2023/03/21 06:54:17;;;;;;;2.25;0.38;;;;;;;;;;4984354;28;20049;-76
2023/03/21 06:56:43;;;;;;;0.20;0.10;;;;;;;;;;4982585;28;20057;-77
2023/03/21 06:59:09;;;;;;;0.35;0.30;;;;;;;;;;4972030;28;20050;-78
2023/03/21 07:01:36;;;;;;;0.20;0.20;;;;;;;;;;4971981;28;20129;-79
2023/03/21 07:04:03;;;;;;;0.28;0.22;;;;;;;;;;4954273;28;21824;-79
2023/03/21 07:06:30;;;;;;;0.20;0.20;;;;;;;;;;4974740;28;20049;-79
2023/03/21 07:08:56;;;;;;;0.25;0.25;;;;;;;;;;4983291;28;20422;-76
2023/03/21 07:11:22;;;;;;;0.20;0.10;;;;;;;;;;4976576;28;20104;-79
2023/03/21 07:13:48;;;;;;;0.80;0.38;;;;;;;;;;4982095;28;20062;-78
2023/03/21 07:16:15;;;;;;;0.20;0.20;;;;;;;;;;4987458;28;20131;-80
2023/03/21 07:18:41;;;;;;;0.45;0.38;;;;;;;;;;4986030;28;20038;-77
2023/03/21 07:21:08;;;;;;;0.32;0.20;;;;;;;;;;4979182;28;20035;-80
2023/03/21 07:23:34;;;;;;;2.15;0.57;;;;;;;;;;4959717;28;20050;-79
2023/03/21 07:26:01;;;;;;;0.63;0.38;;;;;;;;;;4982294;28;20669;-80
2023/03/21 07:28:27;;;;;;;2.15;0.68;;;;;;;;;;4966765;28;20038;-78
2023/03/21 07:30:55;;;;;;;0.20;0.15;;;;;;;;;;4978145;28;20100;-79
2023/03/21 07:33:22;;;;;;;0.52;0.50;;;;;;;;;;4977936;28;20039;-80
2023/03/21 07:35:48;;;;;;;0.20;0.10;;;;;;;;;;4968069;28;20133;-80
2023/03/21 07:38:15;;;;;;;0.32;0.32;;;;;;;;;;4972171;28;20042;-80
2023/03/21 07:40:42;;;;;;;0.20;0.10;;;;;;;;;;4985646;28;20082;-78
2023/03/21 07:43:08;;;;;;;0.20;0.20;;;;;;;;;;4978418;28;20062;-81
2023/03/21 07:45:34;;;;;;;0.20;0.20;;;;;;;;;;4963218;28;20488;-79
2023/03/21 07:48:00;;;;;;;0.20;0.13;;;;;;;;;;4982194;28;20041;-78
2023/03/21 07:50:26;;;;;;;0.32;0.17;;;;;;;;;;4961707;28;20411;-78
2023/03/21 07:52:53;;;;;;;0.20;0.10;;;;;;;;;;4985781;28;20073;-79
2023/03/21 07:55:19;;;;;;;0.20;0.10;;;;;;;;;;4983086;28;20114;-80
2023/03/21 07:57:45;;;;;;;0.20;0.10;;;;;;;;;;4978767;28;20124;-80
2023/03/21 08:00:12;;;;;;;0.20;0.10;;;;;;;;;;4985943;28;20053;-80
2023/03/21 08:02:38;;;;;;;0.20;0.10;;;;;;;;;;4982296;28;20084;-78
2023/03/21 08:05:04;;;;;;;0.90;0.63;;;;;;;;;;4976665;28;20038;-82
2023/03/21 08:07:31;;;;;;;0.30;0.20;;;;;;;;;;4978894;28;20046;-77
2023/03/21 08:09:57;;;;;;;0.32;0.30;;;;;;;;;;4980474;28;20197;-78
2023/03/21 08:12:23;;;;;;;0.73;0.55;;;;;;;;;;4982634;28;20057;-77
2023/03/21 08:14:49;;;;;;;0.20;0.20;;;;;;;;;;4986586;28;20057;-78
2023/03/21 08:17:15;;;;;;;0.28;0.28;;;;;;;;;;4976605;28;20046;-80
2023/03/21 08:19:41;;;;;;;0.43;0.43;;;;;;;;;;4972552;28;20134;-79
2023/03/21 08:22:09;;;;;;;0.55;0.25;;;;;;;;;;4983704;28;20073;-76
2023/03/21 08:24:35;;;;;;;0.20;0.13;;;;;;;;;;4987707;28;20519;-75
2023/03/21 08:27:01;;;;;;;0.20;0.10;;;;;;;;;;4982921;28;20510;-80
2023/03/21 08:29:28;;;;;;;0.20;0.10;;;;;;;;;;4979538;28;20074;-81
2023/03/21 08:31:54;;;;;;;0.20;0.17;;;;;;;;;;4954155;28;20987;-76
2023/03/21 08:34:21;;;;;;;0.20;0.10;;;;;;;;;;4980759;28;20176;-78
2023/03/21 08:36:48;;;;;;;0.40;0.30;;;;;;;;;;4980402;28;20045;-78
2023/03/21 08:39:14;;;;;;;0.20;0.10;;;;;;;;;;4979852;28;20104;-79
2023/03/21 08:41:40;;;;;;;0.20;0.15;;;;;;;;;;4979445;28;20061;-78
2023/03/21 08:44:06;;;;;;;0.30;0.25;;;;;;;;;;4981736;28;20073;-81
2023/03/21 08:46:32;;;;;;;0.30;0.30;;;;;;;;;;4972980;28;20039;-79
2023/03/21 08:48:58;;;;;;;0.75;0.30;;;;;;;;;;4968501;28;20037;-79
2023/03/21 08:51:24;;;;;;;0.20;0.10;;;;;;;;;;4987820;28;20081;-81
2023/03/21 08:53:51;;;;;;;0.20;0.10;;;;;;;;;;4977537;28;20073;-77
2023/03/21 08:56:17;;;;;;;0.20;0.10;;;;;;;;;;4972990;28;20050;-77
2023/03/21 08:58:43;;;;;;;0.20;0.20;;;;;;;;;;4983573;28;20038;-80
2023/03/21 09:01:10;;;;;;;0.57;0.35;;;;;;;;;;4961379;28;20430;-79
2023/03/21 09:03:37;;;;;;;0.20;0.10;;;;;;;;;;4983444;28;20050;-79
2023/03/21 09:06:03;;;;;;;0.20;0.20;;;;;;;;;;4982944;28;20039;-79
2023/03/21 09:08:29;;;;;;;0.50;0.50;;;;;;;;;;4964119;28;20043;-78
2023/03/21 09:10:56;;;;;;;0.28;0.25;;;;;;;;;;4975224;28;20042;-77
2023/03/21 09:13:22;;;;;;;1.65;1.38;;;;;;;;;;4984911;28;20042;-78
2023/03/21 09:15:48;;;;;;;0.20;0.10;;;;;;;;;;4977670;28;20100;-77
2023/03/21 09:18:16;;;;;;;0.20;0.20;;;;;;;;;;4960932;28;20045;-77
2023/03/21 09:20:43;;;;;;;0.20;0.10;;;;;;;;;;4989207;28;20108;-79
2023/03/21 09:23:11;;;;;;;0.30;0.20;;;;;;;;;;4979071;28;20117;-76
2023/03/21 09:25:37;;;;;;;0.38;0.38;;;;;;;;;;4976416;28;20046;-77
2023/03/21 09:28:04;;;;;;;0.20;0.10;;;;;;;;;;4979764;28;20344;-78
2023/03/21 09:30:31;;;;;;;0.25;0.25;;;;;;;;;;4985061;28;20039;-79
2023/03/21 09:33:02;;;;;;;0.52;0.52;;;;;;;;;;4978212;28;20077;-79
2023/03/21 09:35:28;;;;;;;0.47;0.47;;;;;;;;;;4958892;28;20042;-78
2023/03/21 09:37:58;;;;;;;0.43;0.38;;;;;;;;;;4974010;28;20085;-79
2023/03/21 09:40:38;;;;;;;0.30;0.25;;;;;;;;;;4958320;28;20035;-79
2023/03/21 09:43:08;;;;;;;0.30;0.20;;;;;;;;;;4960266;28;20030;-79
2023/03/21 09:45:39;;;;;;;0.20;0.10;;;;;;;;;;4977512;28;20986;-77
2023/03/21 09:48:12;;;;;;;0.60;0.22;;;;;;;;;;4986695;28;20141;-79
2023/03/21 09:50:39;;;;;;;0.40;0.30;;;;;;;;;;4982837;28;20042;-77
2023/03/21 09:53:05;;;;;;;0.82;0.38;;;;;;;;;;4969721;28;20060;-76
2023/03/21 09:55:33;;;;;;;0.20;0.13;;;;;;;;;;4959990;28;20038;-77
2023/03/21 09:58:12;;;;;;;0.20;0.10;;;;;;;;;;4971590;28;20053;-79
2023/03/21 10:00:40;;;;;;;0.52;0.52;;;;;;;;;;4978408;28;20380;-77
2023/03/21 10:03:14;;;;;;;0.20;0.10;;;;;;;;;;4970325;28;20651;-78
2023/03/21 10:05:43;;;;;;;1.65;0.55;;;;;;;;;;4953885;28;20043;-77
2023/03/21 10:08:14;;;;;;;0.20;0.10;;;;;;;;;;4954720;28;20058;-77
2023/03/21 10:10:47;;;;;;;1.40;0.55;;;;;;;;;;4981702;28;20046;-77
2023/03/21 10:13:16;;;;;;;0.20;0.10;;;;;;;;;;4962869;28;20047;-76
2023/03/21 10:15:42;;;;;;;0.60;0.60;;;;;;;;;;4970223;28;20475;-77
2023/03/21 10:18:13;;;;;;;0.20;0.20;;;;;;;;;;4968836;28;20050;-77
2023/03/21 10:20:41;;;;;;;0.20;0.10;;;;;;;;;;4969256;28;20039;-76
2023/03/21 10:23:11;;;;;;;0.20;0.10;;;;;;;;;;4977720;28;20074;-75
2023/03/21 10:25:40;;;;;;;0.40;0.40;;;;;;;;;;4961975;28;20038;-79
2023/03/21 10:28:08;;;;;;;0.28;0.28;;;;;;;;;;4958800;28;20155;-78
2023/03/21 10:30:43;;;;;;;0.82;0.73;;;;;;;;;;4976857;28;20042;-76
2023/03/21 10:33:19;;;;;;;9.38;2.08;;;;;;;;;;4977560;28;20046;-76
2023/03/21 10:35:49;;;;;;;0.25;0.20;;;;;;;;;;4976940;28;20092;-79
2023/03/21 10:38:17;;;;;;;0.30;0.30;;;;;;;;;;4970464;28;20041;-77
2023/03/21 10:40:43;;;;;;;0.20;0.20;;;;;;;;;;4981309;28;20046;-77
2023/03/21 10:43:29;;;;;;;0.20;0.10;;;;;;;;;;4960884;28;20042;-76
2023/03/21 10:45:56;;;;;;;0.95;0.65;;;;;;;;;;4945032;28;20485;-76
2023/03/21 10:48:23;;;;;;;0.55;0.40;;;;;;;;;;4986708;23;20133;-75
2023/03/21 10:50:51;;;;;;;0.32;0.32;;;;;;;;;;4958764;28;21170;-74
2023/03/21 10:53:18;;;;;;;0.20;0.10;;;;;;;;;;4943745;28;20038;-74
2023/03/21 10:55:45;;;;;;;0.20;0.10;;;;;;;;;;4976444;28;20054;-75
2023/03/21 10:58:17;;;;;;;0.43;0.22;;;;;;;;;;4934814;28;20069;-75
2023/03/21 11:00:45;;;;;;;0.20;0.10;;;;;;;;;;4960635;28;20051;-75
2023/03/21 11:03:20;;;;;;;0.20;0.10;;;;;;;;;;4941715;28;20063;-74
2023/03/21 11:05:47;;;;;;;0.20;0.20;;;;;;;;;;4956210;28;20396;-76
2023/03/21 11:08:15;;;;;;;0.20;0.10;;;;;;;;;;4957061;28;20040;-75
2023/03/21 11:11:00;;;;;;;0.20;0.10;;;;;;;;;;4955747;28;20455;-76
2023/03/21 11:13:32;;;;;;;0.20;0.10;;;;;;;;;;4960251;28;20042;-77
2023/03/21 11:16:04;;;;;;;0.20;0.10;;;;;;;;;;4958476;28;20035;-76
2023/03/21 11:18:34;;;;;;;0.20;0.20;;;;;;;;;;4957389;28;20084;-76
2023/03/21 11:21:04;;;;;;;0.20;0.20;;;;;;;;;;4936927;28;20045;-75
2023/03/21 11:23:31;;;;;;;0.20;0.10;;;;;;;;;;4943785;28;20228;-76
2023/03/21 11:25:59;;;;;;;0.63;0.63;;;;;;;;;;4951638;28;20039;-76
2023/03/21 11:28:32;;;;;;;0.47;0.47;;;;;;;;;;4943956;28;20513;-76
2023/03/21 11:30:59;;;;;;;0.50;0.50;;;;;;;;;;4948631;28;20074;-76
2023/03/21 11:33:26;;;;;;;0.20;0.10;;;;;;;;;;4958139;28;20050;-76
2023/03/21 11:35:59;;;;;;;0.45;0.20;;;;;;;;;;4954729;28;20078;-76
2023/03/21 11:38:28;;;;;;;1.95;0.52;;;;;;;;;;4961307;28;20046;-76
2023/03/21 11:40:57;;;;;;;0.30;0.20;;;;;;;;;;4935930;28;20046;-76
2023/03/21 11:43:31;;;;;;;0.20;0.20;;;;;;;;;;4941459;28;20051;-76
2023/03/21 11:46:00;;;;;;;0.50;0.20;;;;;;;;;;4934792;28;20148;-75
2023/03/21 11:48:26;;;;;;;0.35;0.32;;;;;;;;;;4957939;28;20049;-75
2023/03/21 11:50:58;;;;;;;0.45;0.10;;;;;;;;;;4952385;28;20097;-75
2023/03/21 11:53:30;;;;;;;0.20;0.10;;;;;;;;;;4974668;28;20412;-76
2023/03/21 11:56:02;;;;;;;0.30;0.30;;;;;;;;;;4955615;28;20520;-75
2023/03/21 11:58:48;;;;;;;0.20;0.10;;;;;;;;;;4940356;28;20047;-76
2023/03/21 12:01:25;;;;;;;0.20;0.10;;;;;;;;;;4944473;28;20070;-77
2023/03/21 12:04:06;;;;;;;0.20;0.10;;;;;;;;;;4954663;28;20454;-75
2023/03/21 12:06:37;;;;;;;6.38;0.20;;;;;;;;;;4937073;28;21307;-75
2023/03/21 12:09:03;;;;;;;1.85;1.30;;;;;;;;;;4957877;28;20049;-76
2023/03/21 12:11:37;;;;;;;0.77;0.77;;;;;;;;;;4941596;28;20100;-76
2023/03/21 12:14:10;;;;;;;0.35;0.30;;;;;;;;;;4958875;28;20201;-76
2023/03/21 12:16:42;;;;;;;0.90;0.65;;;;;;;;;;4942148;28;20031;-76
2023/03/21 12:19:14;;;;;;;0.20;0.20;;;;;;;;;;4955247;28;20047;-76
2023/03/21 12:21:46;;;;;;;1.23;1.08;;;;;;;;;;4951098;28;20078;-75
2023/03/21 12:24:16;;;;;;;0.20;0.10;;;;;;;;;;4952137;28;20039;-76
2023/03/21 12:26:57;;;;;;;0.35;0.25;;;;;;;;;;4959396;28;20050;-76
2023/03/21 12:29:29;;;;;;;0.75;0.75;;;;;;;;;;4943222;28;20113;-77
2023/03/21 12:32:05;;;;;;;0.20;0.20;;;;;;;;;;4961609;28;20054;-76
2023/03/21 12:34:47;;;;;;;0.65;0.65;;;;;;;;;;4938055;28;20133;-76
2023/03/21 12:37:29;;;;;;;0.20;0.10;;;;;;;;;;4963132;28;20070;-76
2023/03/21 12:40:06;;;;;;;0.20;0.10;;;;;;;;;;4963297;28;20082;-77
2023/03/21 12:42:45;;;;;;;0.20;0.15;;;;;;;;;;4956229;28;20101;-77
2023/03/21 12:45:22;;;;;;;0.20;0.10;;;;;;;;;;4962370;28;20089;-75
2023/03/21 12:47:51;;;;;;;0.20;0.10;;;;;;;;;;4961568;28;20043;-76
2023/03/21 12:50:24;;;;;;;0.30;0.25;;;;;;;;;;4958359;28;20042;-76
2023/03/21 12:52:53;;;;;;;0.40;0.40;;;;;;;;;;4960113;28;20049;-76
2023/03/21 12:55:24;;;;;;;3.13;1.05;;;;;;;;;;4961509;28;20086;-76
2023/03/21 12:58:21;;;;;;;0.65;0.30;;;;;;;;;;4961006;28;20082;-76
2023/03/21 13:01:00;;;;;;;0.20;0.10;;;;;;;;;;4949020;28;20137;-75
2023/03/21 13:03:55;;;;;;;0.20;0.10;;;;;;;;;;4962042;28;20055;-76
2023/03/21 13:06:22;;;;;;;0.40;0.40;;;;;;;;;;4927148;28;20039;-76
2023/03/21 13:08:50;;;;;;;0.20;0.10;;;;;;;;;;4958796;28;20038;-76
2023/03/21 13:11:19;;;;;;;0.20;0.17;;;;;;;;;;4956533;28;20058;-78
2023/03/21 13:14:04;;;;;;;0.20;0.10;;;;;;;;;;4956723;28;20050;-77
2023/03/21 13:16:30;;;;;;;0.30;0.30;;;;;;;;;;4957196;28;20108;-76
2023/03/21 13:19:05;;;;;;;3.95;0.80;;;;;;;;;;4942167;28;20047;-77
2023/03/21 13:21:37;;;;;;;0.20;0.10;;;;;;;;;;4958447;28;20057;-76
2023/03/21 13:24:04;;;;;;;0.20;0.10;;;;;;;;;;4960786;28;20137;-75
2023/03/21 13:26:53;;;;;;;0.38;0.38;;;;;;;;;;4943491;28;20046;-75
2023/03/21 13:29:22;;;;;;;1.45;0.52;;;;;;;;;;4957935;28;20030;-76
2023/03/21 13:31:50;;;;;;;0.20;0.10;;;;;;;;;;4961470;28;20031;-76
2023/03/21 13:34:16;;;;;;;0.20;0.10;;;;;;;;;;4954894;28;20054;-75
2023/03/21 13:36:44;;;;;;;0.20;0.10;;;;;;;;;;4938577;28;20046;-75
2023/03/21 13:39:17;;;;;;;0.63;0.50;;;;;;;;;;4944410;28;20089;-76
2023/03/21 13:41:46;;;;;;;0.20;0.10;;;;;;;;;;4953883;28;20097;-76
2023/03/21 13:44:21;;;;;;;0.20;0.10;;;;;;;;;;4956482;28;20133;-75
2023/03/21 13:46:55;;;;;;;0.20;0.10;;;;;;;;;;4959849;28;20058;-74
2023/03/21 13:49:26;;;;;;;0.57;0.32;;;;;;;;;;4960691;28;20775;-76
2023/03/21 13:51:53;;;;;;;0.32;0.32;;;;;;;;;;4931205;28;20182;-75
2023/03/21 13:54:28;;;;;;;0.20;0.10;;;;;;;;;;4959979;28;20043;-75
2023/03/21 13:56:59;;;;;;;0.30;0.20;;;;;;;;;;4958077;28;20271;-75
2023/03/21 13:59:26;;;;;;;0.20;0.10;;;;;;;;;;4954101;28;20039;-74
2023/03/21 14:02:11;;;;;;;0.20;0.10;;;;;;;;;;4954479;28;20471;-72
2023/03/21 14:04:38;;;;;;;0.73;0.10;;;;;;;;;;4957252;28;20043;-75
2023/03/21 14:07:07;;;;;;;0.20;0.10;;;;;;;;;;4948186;28;20633;-75
2023/03/21 14:09:47;;;;;;;0.30;0.20;;;;;;;;;;4955444;28;20042;-75
2023/03/21 14:12:17;;;;;;;0.20;0.10;;;;;;;;;;4960799;28;20121;-75
2023/03/21 14:14:45;;;;;;;0.20;0.20;;;;;;;;;;4961257;28;20035;-75
2023/03/21 14:17:25;;;;;;;1.23;0.43;;;;;;;;;;4956493;28;20707;-75
2023/03/21 14:19:55;;;;;;;0.20;0.10;;;;;;;;;;4955763;28;20055;-75
2023/03/21 14:22:22;;;;;;;0.20;0.10;;;;;;;;;;4955326;28;20039;-74
2023/03/21 14:24:54;;;;;;;0.20;0.13;;;;;;;;;;4961943;28;20035;-74
2023/03/21 14:27:21;;;;;;;0.20;0.20;;;;;;;;;;4961215;28;20038;-74
2023/03/21 14:29:49;;;;;;;0.50;0.30;;;;;;;;;;4966635;28;20046;-75
2023/03/21 14:32:18;;;;;;;0.47;0.40;;;;;;;;;;4962021;28;20035;-75
2023/03/21 14:34:45;;;;;;;0.20;0.10;;;;;;;;;;4959782;28;20047;-75
2023/03/21 14:37:11;;;;;;;0.20;0.10;;;;;;;;;;4938438;28;20052;-75
2023/03/21 14:39:37;;;;;;;0.20;0.10;;;;;;;;;;4959294;28;20053;-75
2023/03/21 14:42:08;;;;;;;0.20;0.13;;;;;;;;;;4953494;28;20045;-75
2023/03/21 14:44:36;;;;;;;0.20;0.15;;;;;;;;;;4957818;28;20062;-73
2023/03/21 14:47:06;;;;;;;0.20;0.10;;;;;;;;;;4958487;28;20042;-75
2023/03/21 14:49:34;;;;;;;0.20;0.08;;;;;;;;;;4955096;28;20062;-74
2023/03/21 14:52:11;;;;;;;0.38;0.38;;;;;;;;;;4953419;28;20058;-74
2023/03/21 14:54:41;;;;;;;0.30;0.30;;;;;;;;;;4951931;28;20578;-75